createdAt,value
2018-08-17T00:00:35.687Z,17.85
2018-08-17T00:03:04.606Z,17.85
2018-08-17T00:05:33.574Z,17.87
2018-08-17T00:08:02.389Z,17.82
2018-08-17T00:10:31.185Z,17.84
2018-08-17T00:13:00.262Z,17.86
2018-08-17T00:15:29.046Z,17.83
2018-08-17T00:17:57.974Z,17.83
2018-08-17T00:20:27.181Z,17.82
2018-08-17T00:22:56.140Z,17.84
2018-08-17T00:25:25.189Z,17.81
2018-08-17T00:27:54.180Z,17.85
2018-08-17T00:30:22.928Z,17.88
2018-08-17T00:32:51.794Z,17.86
2018-08-17T00:35:20.448Z,17.82
2018-08-17T00:37:49.119Z,17.80
2018-08-17T00:40:18.076Z,17.83
2018-08-17T00:42:46.992Z,17.85
2018-08-17T00:45:15.592Z,17.83
2018-08-17T00:47:44.538Z,17.82
2018-08-17T00:50:13.326Z,17.89
2018-08-17T00:52:42.323Z,17.85
2018-08-17T00:55:11.317Z,17.85
2018-08-17T00:57:40.495Z,17.84
2018-08-17T01:00:09.719Z,17.85
2018-08-17T01:02:38.768Z,17.86
2018-08-17T01:05:07.496Z,17.91
2018-08-17T01:07:36.294Z,17.87
2018-08-17T01:10:05.595Z,17.85
2018-08-17T01:12:34.340Z,17.86
2018-08-17T01:15:03.303Z,17.88
2018-08-17T01:17:31.942Z,17.87
2018-08-17T01:20:00.633Z,17.88
2018-08-17T01:22:29.993Z,17.89
2018-08-17T01:24:59.073Z,17.89
2018-08-17T01:27:28.016Z,17.92
2018-08-17T01:29:57.027Z,17.93
2018-08-17T01:32:26.162Z,17.90
2018-08-17T01:34:54.825Z,17.94
2018-08-17T01:37:23.583Z,17.97
2018-08-17T01:39:52.255Z,17.96
2018-08-17T01:42:21.174Z,17.95
2018-08-17T01:44:49.970Z,17.98
2018-08-17T01:47:18.659Z,17.99
2018-08-17T01:49:47.701Z,18.02
2018-08-17T01:52:16.289Z,18.03
2018-08-17T01:54:45.270Z,18.08
2018-08-17T01:57:14.573Z,18.11
2018-08-17T01:59:43.637Z,18.14
2018-08-17T02:02:12.763Z,18.12
2018-08-17T02:04:41.922Z,18.17
2018-08-17T02:07:10.895Z,18.19
2018-08-17T02:09:39.816Z,18.22
2018-08-17T02:12:09.053Z,18.25
2018-08-17T02:14:37.872Z,18.26
2018-08-17T02:17:06.728Z,18.27
2018-08-17T02:19:35.550Z,18.24
2018-08-17T02:22:04.389Z,18.23
2018-08-17T02:24:33.081Z,18.23
2018-08-17T02:27:02.138Z,18.23
2018-08-17T02:29:30.769Z,18.24
2018-08-17T02:31:59.417Z,18.27
2018-08-17T02:34:28.317Z,18.29
2018-08-17T02:36:57.060Z,18.30
2018-08-17T02:39:25.776Z,18.29
2018-08-17T02:41:54.490Z,18.33
2018-08-17T02:44:23.238Z,18.31
2018-08-17T02:46:51.875Z,18.36
2018-08-17T02:49:20.579Z,18.34
2018-08-17T02:51:49.343Z,18.34
2018-08-17T02:54:18.215Z,18.31
2018-08-17T02:56:47.014Z,18.28
2018-08-17T02:59:16.055Z,18.27
2018-08-17T03:01:44.797Z,18.31
2018-08-17T03:04:13.583Z,18.31
2018-08-17T03:06:42.529Z,18.29
2018-08-17T03:09:12.369Z,18.31
2018-08-17T03:11:41.896Z,18.30
2018-08-17T03:14:10.606Z,18.34
2018-08-17T03:16:39.486Z,18.31
2018-08-17T03:19:08.626Z,18.32
2018-08-17T03:21:37.246Z,18.35
2018-08-17T03:24:06.191Z,18.36
2018-08-17T03:26:34.826Z,18.42
2018-08-17T03:29:03.774Z,18.43
2018-08-17T03:31:32.724Z,18.42
2018-08-17T03:34:01.531Z,18.45
2018-08-17T03:36:30.352Z,18.47
2018-08-17T03:38:58.953Z,18.50
2018-08-17T03:41:27.921Z,18.52
2018-08-17T03:43:56.682Z,18.52
2018-08-17T03:46:25.850Z,18.52
2018-08-17T03:48:54.528Z,18.52
2018-08-17T03:51:23.417Z,18.58
2018-08-17T03:53:52.146Z,18.60
2018-08-17T03:56:21.292Z,18.60
2018-08-17T03:58:49.958Z,18.60
2018-08-17T04:01:18.824Z,18.66
2018-08-17T04:03:47.520Z,18.68
2018-08-17T04:06:17.034Z,18.75
2018-08-17T04:08:45.698Z,18.78
2018-08-17T04:11:14.600Z,18.77
2018-08-17T04:13:43.592Z,18.86
2018-08-17T04:16:12.363Z,18.83
2018-08-17T04:18:45.586Z,18.89
2018-08-17T04:21:14.233Z,18.93
2018-08-17T04:23:42.877Z,18.91
2018-08-17T04:26:11.751Z,18.87
2018-08-17T04:28:40.758Z,18.91
2018-08-17T04:31:09.449Z,18.94
2018-08-17T04:33:38.321Z,18.95
2018-08-17T04:36:07.008Z,19.03
2018-08-17T04:38:35.774Z,18.96
2018-08-17T04:41:04.977Z,18.97
2018-08-17T04:43:33.686Z,18.99
2018-08-17T04:46:03.066Z,19.03
2018-08-17T04:48:32.226Z,19.08
2018-08-17T04:51:01.038Z,19.10
2018-08-17T04:53:29.797Z,19.16
2018-08-17T04:55:58.593Z,19.68
2018-08-17T04:58:28.197Z,19.47
2018-08-17T05:00:57.593Z,19.46
2018-08-17T05:03:26.430Z,19.46
2018-08-17T05:05:55.371Z,19.44
2018-08-17T05:08:24.096Z,19.44
2018-08-17T05:10:53.038Z,19.71
2018-08-17T05:13:21.706Z,19.88
2018-08-17T05:15:50.592Z,19.94
2018-08-17T05:18:19.481Z,20.02
2018-08-17T05:20:48.306Z,20.03
2018-08-17T05:23:17.292Z,20.16
2018-08-17T05:25:46.487Z,20.31
2018-08-17T05:28:15.259Z,21.50
2018-08-17T05:30:44.024Z,22.68
2018-08-17T05:33:12.810Z,22.10
2018-08-17T05:35:41.578Z,23.08
2018-08-17T05:38:10.435Z,24.45
2018-08-17T05:40:39.523Z,24.88
2018-08-17T05:43:08.615Z,23.91
2018-08-17T05:45:37.367Z,24.49
2018-08-17T05:48:06.190Z,25.36
2018-08-17T05:50:35.400Z,25.03
2018-08-17T05:53:04.920Z,24.37
2018-08-17T05:55:33.888Z,22.83
2018-08-17T05:58:02.968Z,22.03
2018-08-17T06:00:31.801Z,21.77
2018-08-17T06:03:00.677Z,21.71
2018-08-17T06:05:29.732Z,21.34
2018-08-17T06:07:58.765Z,21.15
2018-08-17T06:10:27.485Z,21.23
2018-08-17T06:12:56.547Z,21.20
2018-08-17T06:15:25.159Z,21.30
2018-08-17T06:17:54.103Z,21.46
2018-08-17T06:20:23.146Z,21.36
2018-08-17T06:22:52.187Z,21.23
2018-08-17T06:25:21.261Z,21.39
2018-08-17T06:27:50.234Z,21.48
2018-08-17T06:30:19.129Z,21.49
2018-08-17T06:32:48.089Z,21.60
2018-08-17T06:35:17.064Z,21.52
2018-08-17T06:37:46.043Z,21.54
2018-08-17T06:40:15.053Z,21.28
2018-08-17T06:42:43.805Z,20.95
2018-08-17T06:45:13.476Z,20.83
2018-08-17T06:47:42.440Z,20.86
2018-08-17T06:50:11.943Z,20.89
2018-08-17T06:52:41.716Z,20.93
2018-08-17T06:55:11.777Z,21.21
2018-08-17T06:57:40.940Z,21.38
2018-08-17T07:00:12.499Z,21.35
2018-08-17T07:02:41.532Z,21.32
2018-08-17T07:05:10.644Z,21.51
2018-08-17T07:07:40.221Z,21.71
2018-08-17T07:10:11.042Z,21.33
2018-08-17T07:12:40.460Z,21.05
2018-08-17T07:15:09.890Z,20.89
2018-08-17T07:17:39.030Z,20.80
2018-08-17T07:20:09.790Z,20.86
2018-08-17T07:22:38.595Z,21.22
2018-08-17T07:25:08.294Z,21.55
2018-08-17T07:27:37.206Z,21.67
2018-08-17T07:30:07.999Z,21.88
2018-08-17T07:32:36.599Z,21.85
2018-08-17T07:35:06.756Z,21.50
2018-08-17T07:37:35.766Z,21.52
2018-08-17T07:40:05.193Z,21.90
2018-08-17T07:42:34.681Z,22.41
2018-08-17T07:45:03.452Z,22.05
2018-08-17T07:47:32.209Z,22.66
2018-08-17T07:50:01.463Z,22.98
2018-08-17T07:52:30.571Z,23.03
2018-08-17T07:54:59.572Z,23.14
2018-08-17T07:57:28.515Z,23.12
2018-08-17T07:59:57.620Z,22.42
2018-08-17T08:02:26.279Z,22.36
2018-08-17T08:04:55.161Z,22.57
2018-08-17T08:07:23.806Z,23.23
2018-08-17T08:09:52.691Z,23.44
2018-08-17T08:12:21.736Z,23.03
2018-08-17T08:14:50.788Z,23.21
2018-08-17T08:17:19.768Z,23.11
2018-08-17T08:19:58.548Z,22.99
2018-08-17T08:22:27.744Z,23.47
2018-08-17T08:24:56.582Z,23.59
2018-08-17T08:27:25.267Z,23.48
2018-08-17T08:29:54.214Z,23.43
2018-08-17T08:32:22.906Z,23.56
2018-08-17T08:34:51.923Z,23.39
2018-08-17T08:37:21.070Z,23.72
2018-08-17T08:39:50.375Z,24.08
2018-08-17T08:42:19.119Z,24.30
2018-08-17T08:44:47.963Z,24.70
2018-08-17T08:47:16.792Z,25.05
2018-08-17T08:49:45.856Z,24.56
2018-08-17T08:52:14.486Z,24.39
2018-08-17T08:54:43.691Z,24.75
2018-08-17T08:57:12.766Z,25.21
2018-08-17T08:59:41.443Z,24.74
2018-08-17T09:02:10.239Z,24.41
2018-08-17T09:04:39.247Z,24.74
2018-08-17T09:07:08.675Z,24.93
2018-08-17T09:09:37.428Z,25.07
2018-08-17T09:12:06.109Z,24.89
2018-08-17T09:14:35.206Z,24.62
2018-08-17T09:17:03.945Z,24.22
2018-08-17T09:19:33.088Z,23.94
2018-08-17T09:22:02.229Z,23.58
2018-08-17T09:24:30.961Z,23.36
2018-08-17T09:26:59.749Z,23.50
2018-08-17T09:29:28.387Z,23.95
2018-08-17T09:31:57.108Z,24.02
2018-08-17T09:34:25.783Z,24.17
2018-08-17T09:36:54.591Z,24.08
2018-08-17T09:39:23.860Z,23.99
2018-08-17T09:41:52.640Z,23.84
2018-08-17T09:44:21.615Z,23.65
2018-08-17T09:46:50.698Z,23.80
2018-08-17T09:49:19.769Z,24.14
2018-08-17T09:51:48.695Z,24.22
2018-08-17T09:54:17.478Z,24.74
2018-08-17T09:56:46.295Z,24.75
2018-08-17T09:59:15.031Z,24.50
2018-08-17T10:01:49.055Z,24.14
2018-08-17T10:04:23.094Z,24.51
2018-08-17T10:06:57.015Z,24.84
2018-08-17T10:09:31.207Z,24.70
2018-08-17T10:11:59.833Z,24.43
2018-08-17T10:14:28.815Z,24.48
2018-08-17T10:16:58.013Z,24.15
2018-08-17T10:19:26.672Z,23.89
2018-08-17T10:21:56.427Z,24.15
2018-08-17T10:24:25.469Z,24.09
2018-08-17T10:26:55.204Z,23.96
2018-08-17T10:29:24.250Z,24.04
2018-08-17T10:31:53.226Z,24.41
2018-08-17T10:34:22.077Z,24.34
2018-08-17T10:36:50.898Z,24.28
2018-08-17T10:39:19.615Z,24.24
2018-08-17T10:41:48.337Z,24.37
2018-08-17T10:44:17.067Z,24.41
2018-08-17T10:46:45.942Z,24.50
2018-08-17T10:49:14.763Z,24.60
2018-08-17T10:51:43.442Z,24.75
2018-08-17T10:54:12.289Z,24.72
2018-08-17T10:56:41.155Z,24.45
2018-08-17T10:59:10.266Z,24.41
2018-08-17T11:01:43.755Z,24.19
2018-08-17T11:04:12.589Z,24.33
2018-08-17T11:06:41.343Z,23.99
2018-08-17T11:09:11.235Z,24.03
2018-08-17T11:11:41.985Z,23.90
2018-08-17T11:14:10.830Z,23.98
2018-08-17T11:16:39.685Z,24.15
2018-08-17T11:19:08.545Z,24.16
2018-08-17T11:21:37.210Z,24.50
2018-08-17T11:24:06.074Z,24.29
2018-08-17T11:26:35.068Z,24.87
2018-08-17T11:29:04.055Z,24.97
2018-08-17T11:31:32.794Z,24.92
2018-08-17T11:34:01.427Z,24.85
2018-08-17T11:36:30.175Z,25.12
2018-08-17T11:38:58.922Z,24.94
2018-08-17T11:41:27.869Z,24.69
2018-08-17T11:44:03.146Z,24.50
2018-08-17T11:46:32.240Z,24.26
2018-08-17T11:49:01.196Z,24.29
2018-08-17T11:51:30.123Z,24.02
2018-08-17T11:53:58.901Z,24.21
2018-08-17T11:56:27.620Z,24.43
2018-08-17T11:58:56.749Z,24.66
2018-08-17T12:01:27.762Z,24.20
2018-08-17T12:04:03.329Z,24.54
2018-08-17T12:06:32.080Z,24.65
2018-08-17T12:09:01.040Z,24.70
2018-08-17T12:11:29.843Z,24.93
2018-08-17T12:13:58.570Z,24.85
2018-08-17T12:16:27.581Z,24.70
2018-08-17T12:18:56.568Z,24.55
2018-08-17T12:21:25.240Z,24.66
2018-08-17T12:23:54.193Z,24.79
2018-08-17T12:26:23.042Z,24.66
2018-08-17T12:28:51.739Z,24.82
2018-08-17T12:31:20.623Z,24.59
2018-08-17T12:33:49.253Z,24.33
2018-08-17T12:36:18.073Z,24.39
2018-08-17T12:38:46.757Z,24.42
2018-08-17T12:41:15.531Z,24.50
2018-08-17T12:43:44.343Z,24.50
2018-08-17T12:46:13.244Z,24.49
2018-08-17T12:48:42.285Z,24.56
2018-08-17T12:51:11.339Z,24.49
2018-08-17T12:53:40.022Z,24.00
2018-08-17T12:56:08.953Z,24.26
2018-08-17T12:58:37.986Z,24.74
2018-08-17T13:01:06.709Z,24.78
2018-08-17T13:03:35.443Z,24.99
2018-08-17T13:06:04.254Z,25.10
2018-08-17T13:08:33.163Z,24.68
2018-08-17T13:11:01.978Z,24.62
2018-08-17T13:13:30.656Z,25.01
2018-08-17T13:16:06.701Z,25.19
2018-08-17T13:18:37.294Z,25.18
2018-08-17T13:21:06.378Z,25.40
2018-08-17T13:23:35.290Z,25.41
2018-08-17T13:26:04.420Z,25.25
2018-08-17T13:28:33.312Z,24.97
2018-08-17T13:31:02.176Z,24.91
2018-08-17T13:33:30.845Z,24.65
2018-08-17T13:35:59.918Z,24.85
2018-08-17T13:38:28.572Z,25.40
2018-08-17T13:40:57.427Z,25.63
2018-08-17T13:43:26.029Z,25.84
2018-08-17T13:45:54.767Z,25.75
2018-08-17T13:48:23.732Z,26.03
2018-08-17T13:50:52.331Z,26.19
2018-08-17T13:53:21.030Z,26.48
2018-08-17T13:55:49.622Z,26.40
2018-08-17T13:58:18.274Z,25.56
2018-08-17T14:00:47.389Z,25.85
2018-08-17T14:03:16.171Z,25.06
2018-08-17T14:05:45.027Z,24.85
2018-08-17T14:08:13.700Z,25.76
2018-08-17T14:10:42.559Z,26.97
2018-08-17T14:13:11.787Z,28.92
2018-08-17T14:15:40.409Z,29.74
2018-08-17T14:18:09.411Z,29.51
2018-08-17T14:20:38.510Z,28.34
2018-08-17T14:23:07.413Z,28.93
2018-08-17T14:25:36.323Z,28.82
2018-08-17T14:28:05.296Z,28.53
2018-08-17T14:30:34.165Z,29.58
2018-08-17T14:33:03.037Z,30.05
2018-08-17T14:35:31.864Z,28.26
2018-08-17T14:38:00.501Z,29.16
2018-08-17T14:40:29.255Z,27.94
2018-08-17T14:42:58.046Z,27.40
2018-08-17T14:45:26.693Z,26.81
2018-08-17T14:47:55.983Z,26.46
2018-08-17T14:50:24.911Z,26.70
2018-08-17T14:52:53.709Z,25.84
2018-08-17T14:55:22.467Z,25.81
2018-08-17T14:57:51.273Z,25.53
2018-08-17T15:00:20.157Z,26.04
2018-08-17T15:02:49.703Z,25.71
2018-08-17T15:05:19.171Z,25.14
2018-08-17T15:07:47.930Z,24.70
2018-08-17T15:10:16.725Z,24.73
2018-08-17T15:12:45.968Z,24.48
2018-08-17T15:15:15.077Z,24.09
2018-08-17T15:17:44.022Z,23.99
2018-08-17T15:20:13.529Z,24.14
2018-08-17T15:22:42.921Z,24.07
2018-08-17T15:25:12.250Z,24.16
2018-08-17T15:27:41.152Z,24.12
2018-08-17T15:30:11.854Z,23.78
2018-08-17T15:32:41.648Z,23.35
2018-08-17T15:35:11.189Z,23.10
2018-08-17T15:37:40.543Z,22.97
2018-08-17T15:40:11.708Z,23.10
2018-08-17T15:42:41.184Z,23.06
2018-08-17T15:45:10.886Z,23.23
2018-08-17T15:47:39.709Z,23.09
2018-08-17T15:50:14.675Z,22.97
2018-08-17T15:52:43.840Z,22.98
2018-08-17T15:55:13.170Z,22.97
2018-08-17T15:57:41.965Z,22.98
2018-08-17T16:00:12.947Z,22.80
2018-08-17T16:02:41.884Z,22.74
2018-08-17T16:05:10.746Z,22.68
2018-08-17T16:07:39.730Z,22.64
2018-08-17T16:10:10.633Z,22.55
2018-08-17T16:12:39.540Z,22.43
2018-08-17T16:15:09.598Z,22.49
2018-08-17T16:17:38.825Z,22.37
2018-08-17T16:20:09.084Z,22.31
2018-08-17T16:22:38.069Z,22.39
2018-08-17T16:25:07.955Z,22.30
2018-08-17T16:27:36.804Z,22.26
2018-08-17T16:30:06.989Z,22.27
2018-08-17T16:32:36.000Z,22.28
2018-08-17T16:35:04.871Z,22.23
2018-08-17T16:37:34.146Z,22.18
2018-08-17T16:40:02.974Z,22.10
2018-08-17T16:42:35.278Z,21.99
2018-08-17T16:45:05.124Z,22.03
2018-08-17T16:47:33.786Z,22.02
2018-08-17T16:50:02.863Z,21.89
2018-08-17T16:52:31.608Z,21.88
2018-08-17T16:55:00.288Z,21.85
2018-08-17T16:57:28.935Z,21.82
2018-08-17T16:59:57.829Z,21.67
2018-08-17T17:02:26.531Z,21.63
2018-08-17T17:04:55.315Z,21.56
2018-08-17T17:07:29.205Z,21.52
2018-08-17T17:09:58.762Z,21.43
2018-08-17T17:12:28.142Z,21.40
2018-08-17T17:15:05.187Z,21.36
2018-08-17T17:17:34.532Z,21.29
2018-08-17T17:20:03.720Z,21.26
2018-08-17T17:22:32.348Z,21.21
2018-08-17T17:25:06.218Z,21.22
2018-08-17T17:27:34.899Z,21.24
2018-08-17T17:30:03.826Z,20.29
2018-08-17T17:32:32.528Z,21.04
2018-08-17T17:35:01.389Z,20.94
2018-08-17T17:37:30.007Z,20.89
2018-08-17T17:39:58.974Z,20.81
2018-08-17T17:42:27.932Z,20.76
2018-08-17T17:44:56.606Z,20.68
2018-08-17T17:47:25.483Z,20.69
2018-08-17T17:49:54.170Z,20.66
2018-08-17T17:52:22.812Z,20.65
2018-08-17T17:54:51.562Z,20.66
2018-08-17T17:57:20.392Z,20.55
2018-08-17T18:00:03.617Z,20.51
2018-08-17T18:02:32.440Z,20.46
2018-08-17T18:05:01.166Z,20.41
2018-08-17T18:07:35.908Z,20.39
2018-08-17T18:10:04.722Z,20.34
2018-08-17T18:12:33.947Z,20.30
2018-08-17T18:15:03.230Z,20.29
2018-08-17T18:17:32.071Z,20.29
2018-08-17T18:20:00.770Z,20.25
2018-08-17T18:22:32.671Z,20.18
2018-08-17T18:25:06.726Z,20.17
2018-08-17T18:27:35.894Z,20.14
2018-08-17T18:30:05.395Z,20.10
2018-08-17T18:32:34.360Z,20.11
2018-08-17T18:35:03.483Z,19.99
2018-08-17T18:37:32.761Z,19.99
2018-08-17T18:40:01.529Z,20.01
2018-08-17T18:42:30.371Z,19.96
2018-08-17T18:44:59.168Z,19.87
2018-08-17T18:50:34.195Z,19.72
2018-08-17T18:53:06.650Z,19.67
2018-08-17T18:55:40.794Z,19.65
2018-08-17T18:58:09.500Z,19.65
2018-08-17T19:00:38.265Z,19.66
2018-08-17T19:03:07.248Z,19.62
2018-08-17T19:05:36.039Z,19.61
2018-08-17T19:08:05.125Z,19.55
2018-08-17T19:10:33.912Z,19.52
2018-08-17T19:13:02.822Z,19.52
2018-08-17T19:15:39.702Z,19.46
2018-08-17T19:18:08.373Z,19.42
2018-08-17T19:20:37.055Z,19.41
2018-08-17T19:23:05.954Z,19.42
2018-08-17T19:25:39.711Z,19.41
2018-08-17T19:28:08.440Z,19.39
2018-08-17T19:30:37.415Z,19.41
2018-08-17T19:33:09.535Z,19.36
2018-08-17T19:35:43.019Z,19.40
2018-08-17T19:38:12.281Z,19.39
2018-08-17T19:40:41.415Z,19.39
2018-08-17T19:43:10.211Z,19.36
2018-08-17T19:45:39.146Z,19.32
2018-08-17T19:48:08.214Z,19.22
2018-08-17T19:50:37.369Z,19.21
2018-08-17T19:53:06.817Z,19.23
2018-08-17T19:55:35.742Z,19.15
2018-08-17T19:58:04.607Z,19.17
2018-08-17T20:00:33.531Z,19.14
2018-08-17T20:03:02.370Z,19.08
2018-08-17T20:05:31.157Z,19.11
2018-08-17T20:08:00.019Z,19.09
2018-08-17T20:10:28.757Z,19.12
2018-08-17T20:12:57.534Z,19.10
2018-08-17T20:15:26.323Z,19.09
2018-08-17T20:17:55.017Z,19.11
2018-08-17T20:20:23.842Z,19.01
2018-08-17T20:22:58.095Z,18.99
2018-08-17T20:25:27.124Z,18.99
2018-08-17T20:27:56.105Z,18.99
2018-08-17T20:30:25.743Z,18.93
2018-08-17T20:32:54.718Z,18.92
2018-08-17T20:35:23.769Z,18.95
2018-08-17T20:37:53.889Z,18.88
2018-08-17T20:40:22.848Z,18.81
2018-08-17T20:42:51.831Z,18.76
2018-08-17T20:45:23.151Z,18.73
2018-08-17T20:47:52.862Z,18.80
2018-08-17T20:50:21.763Z,18.82
2018-08-17T20:52:56.614Z,18.83
2018-08-17T20:55:25.730Z,18.84
2018-08-17T20:57:56.044Z,18.88
2018-08-17T21:00:26.420Z,18.87
2018-08-17T21:02:55.819Z,18.87
2018-08-17T21:05:24.560Z,18.89
2018-08-17T21:07:53.335Z,18.87
2018-08-17T21:10:22.240Z,18.80
2018-08-17T21:12:51.368Z,18.82
2018-08-17T21:15:20.223Z,18.79
2018-08-17T21:17:49.486Z,18.73
2018-08-17T21:20:18.346Z,18.70
2018-08-17T21:22:47.243Z,18.64
2018-08-17T21:25:15.977Z,18.56
2018-08-17T21:27:44.858Z,18.55
2018-08-17T21:30:13.495Z,18.56
2018-08-17T21:32:42.591Z,18.55
2018-08-17T21:35:11.684Z,18.55
2018-08-17T21:37:40.687Z,18.55
2018-08-17T21:40:42.175Z,18.43
2018-08-17T21:43:11.024Z,18.45
2018-08-17T21:45:39.905Z,18.47
2018-08-17T21:48:15.230Z,18.42
2018-08-17T21:50:44.243Z,18.41
2018-08-17T21:53:13.355Z,18.41
2018-08-17T21:55:42.192Z,18.31
2018-08-17T21:58:10.917Z,18.26
2018-08-17T22:00:39.721Z,18.26
2018-08-17T22:03:16.048Z,18.20
2018-08-17T22:05:44.720Z,18.20
2018-08-17T22:08:13.444Z,18.15
2018-08-17T22:10:42.466Z,18.15
2018-08-17T22:13:22.419Z,18.09
2018-08-17T22:15:51.076Z,18.05
2018-08-17T22:18:20.080Z,18.08
2018-08-17T22:20:48.865Z,18.05
2018-08-17T22:23:17.646Z,17.98
2018-08-17T22:25:46.584Z,17.92
2018-08-17T22:28:15.866Z,17.89
2018-08-17T22:30:45.714Z,17.93
2018-08-17T22:33:14.991Z,17.95
2018-08-17T22:35:44.276Z,17.93
2018-08-17T22:38:13.299Z,17.92
2018-08-17T22:40:42.266Z,17.92
2018-08-17T22:43:10.888Z,17.92
2018-08-17T22:45:40.001Z,17.89
2018-08-17T22:48:09.305Z,17.87
2018-08-17T22:50:38.278Z,17.84
2018-08-17T22:53:07.062Z,17.78
2018-08-17T22:55:35.832Z,17.81
2018-08-17T22:58:04.750Z,17.80
2018-08-17T23:04:15.222Z,17.67
2018-08-17T23:06:44.628Z,17.61
2018-08-17T23:09:13.547Z,17.52
2018-08-17T23:11:42.391Z,17.47
2018-08-17T23:14:17.161Z,17.39
2018-08-17T23:16:46.968Z,17.28
2018-08-17T23:19:15.960Z,17.24
2018-08-17T23:21:44.993Z,17.18
2018-08-17T23:24:13.807Z,17.11
2018-08-17T23:26:42.828Z,17.04
2018-08-17T23:29:12.034Z,16.99
2018-08-17T23:31:40.810Z,16.96
2018-08-17T23:34:10.025Z,16.89
2018-08-17T23:36:39.229Z,16.82
2018-08-17T23:39:09.465Z,16.73
2018-08-17T23:41:38.555Z,16.69
2018-08-17T23:44:07.201Z,16.63
2018-08-17T23:46:36.100Z,16.58
2018-08-17T23:49:04.951Z,16.53
2018-08-17T23:51:33.885Z,16.43
2018-08-17T23:54:02.609Z,16.38
2018-08-17T23:56:31.615Z,16.31
2018-08-17T23:59:00.531Z,16.30
